sensor_id;sensor_type;location;lat;lon;timestamp;pressure;altitude;pressure_sealevel;temperature;humidity
39823;BME280;25499;53.958;10.970;2022-08-19T06:10:38;101071.81;;;18.93;100.00
39823;BME280;25499;53.958;10.970;2022-08-19T06:13:03;101067.31;;;18.96;100.00
39823;BME280;25499;53.958;10.970;2022-08-19T06:15:30;101066.78;;;19.12;100.00
39823;BME280;25499;53.958;10.970;2022-08-19T06:17:56;101070.09;;;18.92;100.00
39823;BME280;25499;53.958;10.970;2022-08-19T06:20:21;101072.47;;;18.99;100.00
39823;BME280;25499;53.958;10.970;2022-08-19T06:22:48;101071.41;;;19.05;100.00
39823;BME280;25499;53.958;10.970;2022-08-19T06:25:15;101065.88;;;18.86;100.00
39823;BME280;25499;53.958;10.970;2022-08-19T06:27:42;101064.06;;;18.88;100.00
39823;BME280;25499;53.958;10.970;2022-08-19T06:30:08;101056.47;;;18.77;100.00
39823;BME280;25499;53.958;10.970;2022-08-19T06:32:35;101062.03;;;18.96;100.00
39823;BME280;25499;53.958;10.970;2022-08-19T06:35:00;101068.31;;;18.92;100.00
39823;BME280;25499;53.958;10.970;2022-08-19T06:37:26;101062.88;;;18.97;100.00
39823;BME280;25499;53.958;10.970;2022-08-19T06:39:51;101062.47;;;19.09;100.00
39823;BME280;25499;53.958;10.970;2022-08-19T06:42:17;101059.56;;;18.90;100.00
39823;BME280;25499;53.958;10.970;2022-08-19T06:44:46;101064.28;;;19.07;100.00
39823;BME280;25499;53.958;10.970;2022-08-19T06:47:15;101058.06;;;19.10;100.00
39823;BME280;25499;53.958;10.970;2022-08-19T06:49:41;101055.63;;;19.04;100.00
39823;BME280;25499;53.958;10.970;2022-08-19T06:52:07;101051.56;;;18.93;100.00
39823;BME280;25499;53.958;10.970;2022-08-19T06:54:33;101053.03;;;19.02;100.00
39823;BME280;25499;53.958;10.970;2022-08-19T06:56:59;101050.53;;;18.97;100.00
39823;BME280;25499;53.958;10.970;2022-08-19T06:59:29;101045.88;;;19.06;100.00
39823;BME280;25499;53.958;10.970;2022-08-19T07:01:59;101055.19;;;19.16;100.00
39823;BME280;25499;53.958;10.970;2022-08-19T07:04:28;101052.56;;;19.16;100.00
39823;BME280;25499;53.958;10.970;2022-08-19T07:07:03;101065.34;;;19.28;100.00
39823;BME280;25499;53.958;10.970;2022-08-19T07:09:31;101066.88;;;19.35;100.00
39823;BME280;25499;53.958;10.970;2022-08-19T07:11:56;101066.16;;;19.30;100.00
39823;BME280;25499;53.958;10.970;2022-08-19T07:14:25;101079.75;;;19.45;100.00
39823;BME280;25499;53.958;10.970;2022-08-19T07:16:52;101080.44;;;19.50;100.00
39823;BME280;25499;53.958;10.970;2022-08-19T07:19:19;101080.50;;;19.48;100.00
39823;BME280;25499;53.958;10.970;2022-08-19T07:21:47;101081.56;;;19.43;100.00
39823;BME280;25499;53.958;10.970;2022-08-19T07:24:12;101090.00;;;19.54;100.00
39823;BME280;25499;53.958;10.970;2022-08-19T07:26:40;101088.22;;;19.54;100.00
39823;BME280;25499;53.958;10.970;2022-08-19T07:29:06;101081.03;;;19.58;100.00
39823;BME280;25499;53.958;10.970;2022-08-19T07:31:32;101071.94;;;19.42;100.00
39823;BME280;25499;53.958;10.970;2022-08-19T07:34:07;101074.84;;;19.34;100.00
39823;BME280;25499;53.958;10.970;2022-08-19T07:36:34;101073.28;;;19.28;100.00
39823;BME280;25499;53.958;10.970;2022-08-19T07:39:07;101068.19;;;19.22;100.00
39823;BME280;25499;53.958;10.970;2022-08-19T07:41:34;101080.50;;;19.23;100.00
39823;BME280;25499;53.958;10.970;2022-08-19T07:44:00;101081.44;;;19.20;100.00
39823;BME280;25499;53.958;10.970;2022-08-19T07:46:36;101086.78;;;19.19;100.00
39823;BME280;25499;53.958;10.970;2022-08-19T07:49:04;101089.47;;;19.17;100.00
39823;BME280;25499;53.958;10.970;2022-08-19T07:51:30;101090.41;;;19.16;100.00
39823;BME280;25499;53.958;10.970;2022-08-19T07:53:56;101085.97;;;19.17;100.00
39823;BME280;25499;53.958;10.970;2022-08-19T07:56:22;101095.41;;;19.24;100.00
39823;BME280;25499;53.958;10.970;2022-08-19T07:58:50;101086.53;;;19.27;100.00
39823;BME280;25499;53.958;10.970;2022-08-19T08:01:22;101079.47;;;19.27;100.00
39823;BME280;25499;53.958;10.970;2022-08-19T08:03:52;101087.38;;;19.27;100.00
39823;BME280;25499;53.958;10.970;2022-08-19T08:06:40;101081.91;;;19.33;100.00
39823;BME280;25499;53.958;10.970;2022-08-19T08:09:36;101085.66;;;19.26;100.00
39823;BME280;25499;53.958;10.970;2022-08-19T08:12:12;101088.66;;;19.42;100.00
39823;BME280;25499;53.958;10.970;2022-08-19T08:17:10;101095.06;;;19.35;100.00
39823;BME280;25499;53.958;10.970;2022-08-19T08:19:37;101092.38;;;19.36;100.00
39823;BME280;25499;53.958;10.970;2022-08-19T08:22:03;101101.28;;;19.32;100.00
39823;BME280;25499;53.958;10.970;2022-08-19T08:24:31;101095.53;;;19.46;100.00
39823;BME280;25499;53.958;10.970;2022-08-19T08:26:58;101103.25;;;19.52;100.00
39823;BME280;25499;53.958;10.970;2022-08-19T08:29:25;101091.44;;;19.37;100.00
39823;BME280;25499;53.958;10.970;2022-08-19T08:31:51;101101.00;;;19.42;100.00
39823;BME280;25499;53.958;10.970;2022-08-19T08:34:16;101095.59;;;19.45;100.00
39823;BME280;25499;53.958;10.970;2022-08-19T08:36:44;101102.50;;;19.49;100.00
39823;BME280;25499;53.958;10.970;2022-08-19T08:39:20;101109.78;;;19.67;100.00
39823;BME280;25499;53.958;10.970;2022-08-19T08:42:07;101113.22;;;19.69;100.00
39823;BME280;25499;53.958;10.970;2022-08-19T08:47:09;101106.38;;;19.89;100.00
39823;BME280;25499;53.958;10.970;2022-08-19T08:52:20;101118.94;;;20.07;100.00
39823;BME280;25499;53.958;10.970;2022-08-19T08:54:48;101117.22;;;20.06;100.00
39823;BME280;25499;53.958;10.970;2022-08-19T08:57:27;101112.00;;;20.05;100.00
39823;BME280;25499;53.958;10.970;2022-08-19T08:59:56;101121.47;;;20.10;100.00
39823;BME280;25499;53.958;10.970;2022-08-19T09:02:22;101129.50;;;20.31;100.00
39823;BME280;25499;53.958;10.970;2022-08-19T09:04:47;101129.75;;;20.25;100.00
39823;BME280;25499;53.958;10.970;2022-08-19T09:09:52;101130.50;;;20.28;100.00
39823;BME280;25499;53.958;10.970;2022-08-19T09:15:07;101127.81;;;20.30;100.00
39823;BME280;25499;53.958;10.970;2022-08-19T09:17:34;101132.47;;;20.23;100.00
39823;BME280;25499;53.958;10.970;2022-08-19T09:20:11;101131.81;;;20.40;100.00
39823;BME280;25499;53.958;10.970;2022-08-19T09:22:41;101135.59;;;20.33;100.00
39823;BME280;25499;53.958;10.970;2022-08-19T09:25:10;101137.81;;;20.45;100.00
39823;BME280;25499;53.958;10.970;2022-08-19T09:27:37;101136.44;;;20.35;100.00
39823;BME280;25499;53.958;10.970;2022-08-19T09:30:05;101136.44;;;20.35;100.00
39823;BME280;25499;53.958;10.970;2022-08-19T09:32:32;101142.03;;;20.49;100.00
39823;BME280;25499;53.958;10.970;2022-08-19T09:34:58;101135.38;;;20.39;100.00
39823;BME280;25499;53.958;10.970;2022-08-19T09:37:25;101143.19;;;20.42;100.00
39823;BME280;25499;53.958;10.970;2022-08-19T09:39:51;101140.66;;;20.39;100.00
39823;BME280;25499;53.958;10.970;2022-08-19T09:42:17;101139.88;;;20.37;100.00
39823;BME280;25499;53.958;10.970;2022-08-19T09:44:43;101138.50;;;20.27;100.00
39823;BME280;25499;53.958;10.970;2022-08-19T09:47:11;101142.84;;;20.28;100.00
39823;BME280;25499;53.958;10.970;2022-08-19T09:49:38;101131.88;;;20.15;100.00
39823;BME280;25499;53.958;10.970;2022-08-19T09:52:05;101136.06;;;20.21;100.00
39823;BME280;25499;53.958;10.970;2022-08-19T09:54:30;101130.81;;;20.19;100.00
39823;BME280;25499;53.958;10.970;2022-08-19T09:56:58;101129.97;;;20.19;100.00
39823;BME280;25499;53.958;10.970;2022-08-19T09:59:25;101130.72;;;20.22;100.00
39823;BME280;25499;53.958;10.970;2022-08-19T10:01:51;101124.75;;;20.41;100.00
39823;BME280;25499;53.958;10.970;2022-08-19T10:04:20;101127.91;;;20.27;100.00
39823;BME280;25499;53.958;10.970;2022-08-19T10:07:08;101132.72;;;20.39;100.00
39823;BME280;25499;53.958;10.970;2022-08-19T10:09:33;101135.25;;;20.42;100.00
39823;BME280;25499;53.958;10.970;2022-08-19T10:11:59;101137.84;;;20.67;100.00
39823;BME280;25499;53.958;10.970;2022-08-19T10:14:26;101135.94;;;20.71;100.00
39823;BME280;25499;53.958;10.970;2022-08-19T10:16:52;101136.91;;;20.68;100.00
39823;BME280;25499;53.958;10.970;2022-08-19T10:19:18;101141.41;;;20.66;100.00
39823;BME280;25499;53.958;10.970;2022-08-19T10:21:45;101136.81;;;20.72;100.00
39823;BME280;25499;53.958;10.970;2022-08-19T10:24:10;101137.25;;;20.83;100.00
39823;BME280;25499;53.958;10.970;2022-08-19T10:26:37;101135.78;;;20.76;100.00
39823;BME280;25499;53.958;10.970;2022-08-19T10:29:04;101138.59;;;20.71;100.00
39823;BME280;25499;53.958;10.970;2022-08-19T10:31:33;101130.72;;;20.70;100.00
39823;BME280;25499;53.958;10.970;2022-08-19T10:33:59;101125.69;;;20.62;100.00
39823;BME280;25499;53.958;10.970;2022-08-19T10:36:32;101132.75;;;20.61;100.00
39823;BME280;25499;53.958;10.970;2022-08-19T10:39:00;101131.34;;;20.53;100.00
39823;BME280;25499;53.958;10.970;2022-08-19T10:41:32;101130.44;;;20.54;100.00
39823;BME280;25499;53.958;10.970;2022-08-19T10:44:02;101126.09;;;20.51;100.00
39823;BME280;25499;53.958;10.970;2022-08-19T10:46:28;101119.63;;;20.36;100.00
39823;BME280;25499;53.958;10.970;2022-08-19T10:48:58;101123.88;;;20.17;100.00
39823;BME280;25499;53.958;10.970;2022-08-19T10:51:24;101124.97;;;20.11;100.00
39823;BME280;25499;53.958;10.970;2022-08-19T10:54:08;101120.66;;;20.08;100.00
39823;BME280;25499;53.958;10.970;2022-08-19T10:56:33;101133.78;;;20.11;100.00
39823;BME280;25499;53.958;10.970;2022-08-19T10:59:26;101133.88;;;20.08;100.00
39823;BME280;25499;53.958;10.970;2022-08-19T11:02:00;101122.25;;;20.12;100.00
39823;BME280;25499;53.958;10.970;2022-08-19T11:04:26;101124.97;;;20.11;100.00
39823;BME280;25499;53.958;10.970;2022-08-19T11:06:51;101114.53;;;20.08;100.00
39823;BME280;25499;53.958;10.970;2022-08-19T11:09:21;101109.69;;;20.19;100.00
39823;BME280;25499;53.958;10.970;2022-08-19T11:11:47;101118.31;;;20.24;100.00
39823;BME280;25499;53.958;10.970;2022-08-19T11:14:16;101113.31;;;20.40;100.00
39823;BME280;25499;53.958;10.970;2022-08-19T11:16:43;101112.31;;;20.43;100.00
39823;BME280;25499;53.958;10.970;2022-08-19T11:19:11;101116.38;;;20.52;100.00
39823;BME280;25499;53.958;10.970;2022-08-19T11:21:39;101110.19;;;20.53;100.00
39823;BME280;25499;53.958;10.970;2022-08-19T11:24:11;101122.41;;;20.55;100.00
39823;BME280;25499;53.958;10.970;2022-08-19T11:26:38;101120.31;;;20.65;100.00
39823;BME280;25499;53.958;10.970;2022-08-19T11:29:05;101119.13;;;20.72;100.00
39823;BME280;25499;53.958;10.970;2022-08-19T11:31:33;101119.00;;;20.75;100.00
39823;BME280;25499;53.958;10.970;2022-08-19T11:34:01;101117.25;;;20.76;100.00
39823;BME280;25499;53.958;10.970;2022-08-19T11:36:29;101119.97;;;20.74;100.00
39823;BME280;25499;53.958;10.970;2022-08-19T11:38:54;101124.94;;;20.82;100.00
39823;BME280;25499;53.958;10.970;2022-08-19T11:41:21;101121.53;;;20.78;100.00
39823;BME280;25499;53.958;10.970;2022-08-19T11:43:52;101118.16;;;20.75;100.00
39823;BME280;25499;53.958;10.970;2022-08-19T11:46:19;101118.41;;;20.68;100.00
39823;BME280;25499;53.958;10.970;2022-08-19T11:48:45;101120.19;;;20.68;100.00
39823;BME280;25499;53.958;10.970;2022-08-19T11:51:16;101120.13;;;20.70;100.00
39823;BME280;25499;53.958;10.970;2022-08-19T11:53:43;101124.06;;;20.81;100.00
39823;BME280;25499;53.958;10.970;2022-08-19T11:56:09;101118.22;;;20.73;100.00
39823;BME280;25499;53.958;10.970;2022-08-19T11:58:35;101116.69;;;20.67;100.00
39823;BME280;25499;53.958;10.970;2022-08-19T12:01:05;101117.66;;;20.65;100.00
39823;BME280;25499;53.958;10.970;2022-08-19T12:03:30;101113.03;;;20.70;100.00
39823;BME280;25499;53.958;10.970;2022-08-19T12:05:56;101122.41;;;20.55;100.00
39823;BME280;25499;53.958;10.970;2022-08-19T12:08:22;101125.75;;;20.60;100.00
39823;BME280;25499;53.958;10.970;2022-08-19T12:10:47;101118.06;;;20.54;100.00
39823;BME280;25499;53.958;10.970;2022-08-19T12:13:14;101116.16;;;20.58;100.00
39823;BME280;25499;53.958;10.970;2022-08-19T12:15:44;101114.56;;;20.54;100.00
39823;BME280;25499;53.958;10.970;2022-08-19T12:18:10;101113.72;;;20.52;100.00
39823;BME280;25499;53.958;10.970;2022-08-19T12:20:39;101117.31;;;20.50;100.00
39823;BME280;25499;53.958;10.970;2022-08-19T12:23:06;101114.78;;;20.47;100.00
39823;BME280;25499;53.958;10.970;2022-08-19T12:25:32;101125.06;;;20.55;100.00
39823;BME280;25499;53.958;10.970;2022-08-19T12:27:58;101122.88;;;20.43;100.00
39823;BME280;25499;53.958;10.970;2022-08-19T12:30:24;101115.91;;;20.42;100.00
39823;BME280;25499;53.958;10.970;2022-08-19T12:32:50;101120.63;;;20.34;100.00
39823;BME280;25499;53.958;10.970;2022-08-19T12:35:17;101112.03;;;20.27;100.00
39823;BME280;25499;53.958;10.970;2022-08-19T12:37:46;101117.09;;;20.33;100.00
39823;BME280;25499;53.958;10.970;2022-08-19T12:40:11;101114.91;;;20.44;100.00
39823;BME280;25499;53.958;10.970;2022-08-19T12:42:38;101111.56;;;20.39;100.00
39823;BME280;25499;53.958;10.970;2022-08-19T12:45:12;101114.44;;;20.33;100.00
39823;BME280;25499;53.958;10.970;2022-08-19T12:47:38;101114.69;;;20.27;100.00
39823;BME280;25499;53.958;10.970;2022-08-19T12:50:05;101119.03;;;20.28;100.00
39823;BME280;25499;53.958;10.970;2022-08-19T12:52:31;101113.41;;;20.37;100.00
39823;BME280;25499;53.958;10.970;2022-08-19T12:54:57;101118.59;;;20.40;100.00
39823;BME280;25499;53.958;10.970;2022-08-19T12:57:24;101120.81;;;20.51;100.00
39823;BME280;25499;53.958;10.970;2022-08-19T12:59:53;101124.63;;;20.44;100.00
39823;BME280;25499;53.958;10.970;2022-08-19T13:02:19;101129.03;;;20.43;100.00
39823;BME280;25499;53.958;10.970;2022-08-19T13:04:45;101128.91;;;20.46;100.00
39823;BME280;25499;53.958;10.970;2022-08-19T13:07:10;101131.41;;;20.51;100.00
39823;BME280;25499;53.958;10.970;2022-08-19T13:09:36;101133.53;;;20.65;100.00
39823;BME280;25499;53.958;10.970;2022-08-19T13:12:02;101131.69;;;20.67;100.00
39823;BME280;25499;53.958;10.970;2022-08-19T13:14:28;101127.34;;;20.66;100.00
39823;BME280;25499;53.958;10.970;2022-08-19T13:16:55;101127.53;;;20.60;100.00
39823;BME280;25499;53.958;10.970;2022-08-19T13:19:22;101121.63;;;20.53;100.00
39823;BME280;25499;53.958;10.970;2022-08-19T13:21:52;101118.91;;;20.55;100.00
39823;BME280;25499;53.958;10.970;2022-08-19T13:24:18;101126.53;;;20.64;100.00
39823;BME280;25499;53.958;10.970;2022-08-19T13:26:44;101123.97;;;20.61;100.00
39823;BME280;25499;53.958;10.970;2022-08-19T13:29:10;101121.09;;;20.67;100.00
39823;BME280;25499;53.958;10.970;2022-08-19T13:31:54;101122.59;;;20.74;100.00
39823;BME280;25499;53.958;10.970;2022-08-19T13:34:38;101123.75;;;20.89;100.00
39823;BME280;25499;53.958;10.970;2022-08-19T13:37:05;101124.63;;;20.90;100.00
39823;BME280;25499;53.958;10.970;2022-08-19T13:39:34;101119.81;;;20.99;100.00
39823;BME280;25499;53.958;10.970;2022-08-19T13:42:00;101114.44;;;21.01;100.00
39823;BME280;25499;53.958;10.970;2022-08-19T13:44:28;101108.13;;;21.05;100.00
39823;BME280;25499;53.958;10.970;2022-08-19T13:47:02;101120.59;;;21.23;100.00
39823;BME280;25499;53.958;10.970;2022-08-19T13:49:32;101114.97;;;21.31;100.00
39823;BME280;25499;53.958;10.970;2022-08-19T13:51:58;101117.75;;;21.28;100.00
39823;BME280;25499;53.958;10.970;2022-08-19T13:54:23;101122.84;;;21.33;100.00
39823;BME280;25499;53.958;10.970;2022-08-19T13:56:49;101118.81;;;21.24;100.00
39823;BME280;25499;53.958;10.970;2022-08-19T13:59:15;101116.63;;;21.13;100.00
39823;BME280;25499;53.958;10.970;2022-08-19T14:01:40;101116.16;;;21.24;100.00
39823;BME280;25499;53.958;10.970;2022-08-19T14:04:07;101117.53;;;21.12;100.00
39823;BME280;25499;53.958;10.970;2022-08-19T14:06:32;101120.19;;;21.12;100.00
39823;BME280;25499;53.958;10.970;2022-08-19T14:08:58;101117.13;;;21.21;100.00
39823;BME280;25499;53.958;10.970;2022-08-19T14:11:23;101120.84;;;21.17;100.00
39823;BME280;25499;53.958;10.970;2022-08-19T14:13:49;101112.22;;;21.12;100.00
39823;BME280;25499;53.958;10.970;2022-08-19T14:16:15;101104.00;;;21.20;100.00
39823;BME280;25499;53.958;10.970;2022-08-19T14:18:41;101110.66;;;21.08;100.00
39823;BME280;25499;53.958;10.970;2022-08-19T14:21:14;101110.97;;;21.21;100.00
39823;BME280;25499;53.958;10.970;2022-08-19T14:23:42;101111.31;;;21.13;100.00
39823;BME280;25499;53.958;10.970;2022-08-19T14:26:12;101118.03;;;21.00;100.00
39823;BME280;25499;53.958;10.970;2022-08-19T14:28:39;101117.03;;;21.02;100.00
39823;BME280;25499;53.958;10.970;2022-08-19T14:31:14;101109.66;;;21.11;100.00
39823;BME280;25499;53.958;10.970;2022-08-19T14:33:41;101111.75;;;21.02;100.00
39823;BME280;25499;53.958;10.970;2022-08-19T14:36:07;101114.44;;;21.01;100.00
39823;BME280;25499;53.958;10.970;2022-08-19T14:38:33;101114.50;;;20.99;100.00
39823;BME280;25499;53.958;10.970;2022-08-19T14:41:29;101113.72;;;20.97;100.00
39823;BME280;25499;53.958;10.970;2022-08-19T14:43:56;101112.13;;;20.93;100.00
39823;BME280;25499;53.958;10.970;2022-08-19T14:46:24;101110.78;;;21.05;100.00
39823;BME280;25499;53.958;10.970;2022-08-19T14:48:50;101114.22;;;21.07;100.00
39823;BME280;25499;53.958;10.970;2022-08-19T14:51:16;101119.91;;;20.98;100.00
39823;BME280;25499;53.958;10.970;2022-08-19T14:53:42;101113.50;;;20.81;100.00
39823;BME280;25499;53.958;10.970;2022-08-19T14:56:14;101112.88;;;20.75;100.00
39823;BME280;25499;53.958;10.970;2022-08-19T14:58:40;101107.97;;;20.88;100.00
39823;BME280;25499;53.958;10.970;2022-08-19T15:01:07;101108.94;;;20.85;100.00
39823;BME280;25499;53.958;10.970;2022-08-19T15:03:33;101110.41;;;20.92;100.00
39823;BME280;25499;53.958;10.970;2022-08-19T15:06:00;101112.75;;;21.00;100.00
39823;BME280;25499;53.958;10.970;2022-08-19T15:08:27;101114.22;;;21.07;100.00
39823;BME280;25499;53.958;10.970;2022-08-19T15:10:54;101113.34;;;21.07;100.00
39823;BME280;25499;53.958;10.970;2022-08-19T15:13:20;101112.72;;;21.22;100.00
39823;BME280;25499;53.958;10.970;2022-08-19T15:15:47;101108.00;;;21.08;100.00
39823;BME280;25499;53.958;10.970;2022-08-19T15:18:13;101110.50;;;21.11;100.00
39823;BME280;25499;53.958;10.970;2022-08-19T15:20:39;101117.34;;;21.17;100.00
39823;BME280;25499;53.958;10.970;2022-08-19T15:23:06;101118.28;;;21.36;100.00
39823;BME280;25499;53.958;10.970;2022-08-19T15:25:32;101117.97;;;21.23;100.00
39823;BME280;25499;53.958;10.970;2022-08-19T15:27:58;101113.88;;;21.37;100.00
39823;BME280;25499;53.958;10.970;2022-08-19T15:30:27;101119.66;;;21.45;100.00
39823;BME280;25499;53.958;10.970;2022-08-19T15:32:53;101117.75;;;21.28;100.00
39823;BME280;25499;53.958;10.970;2022-08-19T15:35:20;101121.41;;;21.26;100.00
39823;BME280;25499;53.958;10.970;2022-08-19T15:37:50;101124.16;;;21.22;100.00
39823;BME280;25499;53.958;10.970;2022-08-19T15:40:16;101129.09;;;21.32;100.00
39823;BME280;25499;53.958;10.970;2022-08-19T15:42:42;101128.56;;;21.44;100.00
39823;BME280;25499;53.958;10.970;2022-08-19T15:45:11;101126.31;;;21.55;100.00
39823;BME280;25499;53.958;10.970;2022-08-19T15:47:37;101130.84;;;21.53;100.00
39823;BME280;25499;53.958;10.970;2022-08-19T15:50:07;101135.78;;;21.40;100.00
39823;BME280;25499;53.958;10.970;2022-08-19T15:52:33;101141.09;;;21.40;100.00
39823;BME280;25499;53.958;10.970;2022-08-19T15:54:59;101133.13;;;21.40;100.00
39823;BME280;25499;53.958;10.970;2022-08-19T15:57:25;101139.53;;;21.35;100.00
39823;BME280;25499;53.958;10.970;2022-08-19T15:59:50;101140.19;;;21.40;100.00
39823;BME280;25499;53.958;10.970;2022-08-19T16:02:34;101139.22;;;21.42;100.00
39823;BME280;25499;53.958;10.970;2022-08-19T16:05:21;101144.59;;;21.41;100.00
39823;BME280;25499;53.958;10.970;2022-08-19T16:08:05;101142.72;;;21.43;100.00
39823;BME280;25499;53.958;10.970;2022-08-19T16:10:32;101147.25;;;21.41;100.00
39823;BME280;25499;53.958;10.970;2022-08-19T16:12:59;101150.94;;;21.37;100.00
39823;BME280;25499;53.958;10.970;2022-08-19T16:15:26;101145.91;;;21.31;100.00
39823;BME280;25499;53.958;10.970;2022-08-19T16:17:52;101141.66;;;21.27;100.00
39823;BME280;25499;53.958;10.970;2022-08-19T16:20:19;101142.47;;;21.29;100.00
39823;BME280;25499;53.958;10.970;2022-08-19T16:22:46;101142.22;;;21.13;100.00
39823;BME280;25499;53.958;10.970;2022-08-19T16:25:12;101139.84;;;21.07;100.00
39823;BME280;25499;53.958;10.970;2022-08-19T16:27:38;101143.91;;;20.93;100.00
39823;BME280;25499;53.958;10.970;2022-08-19T16:30:04;101149.94;;;20.97;100.00
39823;BME280;25499;53.958;10.970;2022-08-19T16:32:30;101145.75;;;20.91;100.00
39823;BME280;25499;53.958;10.970;2022-08-19T16:34:56;101146.78;;;20.87;100.00
39823;BME280;25499;53.958;10.970;2022-08-19T16:37:21;101143.41;;;20.83;100.00
39823;BME280;25499;53.958;10.970;2022-08-19T16:39:47;101141.13;;;20.74;100.00
39823;BME280;25499;53.958;10.970;2022-08-19T16:42:13;101138.59;;;20.71;100.00
39823;BME280;25499;53.958;10.970;2022-08-19T16:44:43;101141.59;;;20.60;100.00
39823;BME280;25499;53.958;10.970;2022-08-19T16:47:12;101136.69;;;20.51;100.00
39823;BME280;25499;53.958;10.970;2022-08-19T16:49:38;101139.50;;;20.46;100.00
39823;BME280;25499;53.958;10.970;2022-08-19T16:52:05;101136.22;;;20.40;100.00
39823;BME280;25499;53.958;10.970;2022-08-19T16:54:34;101133.72;;;20.37;100.00
39823;BME280;25499;53.958;10.970;2022-08-19T16:56:59;101136.53;;;20.32;100.00
39823;BME280;25499;53.958;10.970;2022-08-19T16:59:25;101133.19;;;20.27;100.00
39823;BME280;25499;53.958;10.970;2022-08-19T17:01:51;101137.34;;;20.34;100.00
39823;BME280;25499;53.958;10.970;2022-08-19T17:04:17;101138.38;;;20.30;100.00
39823;BME280;25499;53.958;10.970;2022-08-19T17:06:43;101141.94;;;20.29;100.00
39823;BME280;25499;53.958;10.970;2022-08-19T17:09:09;101140.19;;;20.28;100.00
39823;BME280;25499;53.958;10.970;2022-08-19T17:11:34;101138.44;;;20.28;100.00
39823;BME280;25499;53.958;10.970;2022-08-19T17:14:01;101141.03;;;20.30;100.00
39823;BME280;25499;53.958;10.970;2022-08-19T17:16:31;101136.84;;;20.23;100.00
39823;BME280;25499;53.958;10.970;2022-08-19T17:18:58;101147.13;;;20.32;100.00
39823;BME280;25499;53.958;10.970;2022-08-19T17:21:29;101150.91;;;20.48;100.00
39823;BME280;25499;53.958;10.970;2022-08-19T17:23:57;101147.00;;;20.35;100.00
39823;BME280;25499;53.958;10.970;2022-08-19T17:26:24;101158.13;;;20.43;100.00
39823;BME280;25499;53.958;10.970;2022-08-19T17:28:51;101150.28;;;20.42;100.00
39823;BME280;25499;53.958;10.970;2022-08-19T17:31:20;101149.75;;;20.56;100.00
39823;BME280;25499;53.958;10.970;2022-08-19T17:33:47;101153.66;;;20.45;100.00
39823;BME280;25499;53.958;10.970;2022-08-19T17:36:13;101155.72;;;20.37;100.00
39823;BME280;25499;53.958;10.970;2022-08-19T17:38:38;101159.41;;;20.33;100.00
39823;BME280;25499;53.958;10.970;2022-08-19T17:41:04;101171.81;;;20.55;100.00
39823;BME280;25499;53.958;10.970;2022-08-19T17:43:34;101164.78;;;20.31;100.00
39823;BME280;25499;53.958;10.970;2022-08-19T17:46:00;101165.78;;;20.27;100.00
39823;BME280;25499;53.958;10.970;2022-08-19T17:48:31;101166.13;;;20.18;100.00
39823;BME280;25499;53.958;10.970;2022-08-19T17:51:16;101165.25;;;20.18;100.00
39823;BME280;25499;53.958;10.970;2022-08-19T17:53:43;101169.53;;;20.22;100.00
39823;BME280;25499;53.958;10.970;2022-08-19T17:56:09;101173.03;;;20.46;100.00
39823;BME280;25499;53.958;10.970;2022-08-19T17:58:35;101170.31;;;20.24;100.00
39823;BME280;25499;53.958;10.970;2022-08-19T18:01:00;101173.88;;;20.23;100.00
39823;BME280;25499;53.958;10.970;2022-08-19T18:03:27;101169.41;;;20.25;100.00
39823;BME280;25499;53.958;10.970;2022-08-19T18:05:55;101161.81;;;20.16;100.00
39823;BME280;25499;53.958;10.970;2022-08-19T18:08:22;101150.72;;;20.29;100.00
39823;BME280;25499;53.958;10.970;2022-08-19T18:10:47;101157.16;;;20.22;100.00
39823;BME280;25499;53.958;10.970;2022-08-19T18:13:13;101159.19;;;20.39;100.00
39823;BME280;25499;53.958;10.970;2022-08-19T18:15:40;101154.19;;;20.31;100.00
39823;BME280;25499;53.958;10.970;2022-08-19T18:18:06;101149.28;;;20.21;100.00
39823;BME280;25499;53.958;10.970;2022-08-19T18:20:33;101149.97;;;20.26;100.00
39823;BME280;25499;53.958;10.970;2022-08-19T18:22:59;101139.75;;;20.40;100.00
39823;BME280;25499;53.958;10.970;2022-08-19T18:25:25;101140.44;;;20.22;100.00
39823;BME280;25499;53.958;10.970;2022-08-19T18:27:58;101131.78;;;20.18;100.00
39823;BME280;25499;53.958;10.970;2022-08-19T18:30:26;101137.53;;;20.04;100.00
39823;BME280;25499;53.958;10.970;2022-08-19T18:32:53;101127.22;;;19.98;100.00
39823;BME280;25499;53.958;10.970;2022-08-19T18:35:25;101124.81;;;19.90;100.00
39823;BME280;25499;53.958;10.970;2022-08-19T18:37:55;101125.16;;;19.81;100.00
39823;BME280;25499;53.958;10.970;2022-08-19T18:40:22;101127.00;;;19.79;100.00
39823;BME280;25499;53.958;10.970;2022-08-19T18:43:07;101117.88;;;19.63;100.00
39823;BME280;25499;53.958;10.970;2022-08-19T18:45:51;101113.75;;;19.54;100.00
39823;BME280;25499;53.958;10.970;2022-08-19T18:48:36;101120.16;;;19.72;100.00
39823;BME280;25499;53.958;10.970;2022-08-19T18:51:21;101118.91;;;19.84;100.00
39823;BME280;25499;53.958;10.970;2022-08-19T18:53:47;101132.59;;;19.95;100.00
39823;BME280;25499;53.958;10.970;2022-08-19T18:56:14;101132.53;;;19.71;100.00
39823;BME280;25499;53.958;10.970;2022-08-19T18:58:42;101128.47;;;19.61;100.00